sensor_id;sensor_type;location;lat;lon;timestamp;P1;durP1;ratioP1;P2;durP2;ratioP2
44885;SDS011;36669;51.428;21.162;2022-12-18T00:01:56;31.05;;;12.30;;
44885;SDS011;36669;51.428;21.162;2022-12-18T00:04:24;50.95;;;17.55;;
44885;SDS011;36669;51.428;21.162;2022-12-18T00:06:51;47.47;;;20.35;;
44885;SDS011;36669;51.428;21.162;2022-12-18T00:09:17;29.27;;;11.90;;
44885;SDS011;36669;51.428;21.162;2022-12-18T00:11:43;31.38;;;12.55;;
44885;SDS011;36669;51.428;21.162;2022-12-18T00:14:09;48.33;;;17.77;;
44885;SDS011;36669;51.428;21.162;2022-12-18T00:16:37;53.72;;;21.25;;
44885;SDS011;36669;51.428;21.162;2022-12-18T00:19:03;53.45;;;21.75;;
44885;SDS011;36669;51.428;21.162;2022-12-18T00:21:29;58.08;;;21.15;;
44885;SDS011;36669;51.428;21.162;2022-12-18T00:23:57;41.85;;;15.35;;
44885;SDS011;36669;51.428;21.162;2022-12-18T00:26:24;40.42;;;16.73;;
44885;SDS011;36669;51.428;21.162;2022-12-18T00:28:51;50.35;;;18.13;;
44885;SDS011;36669;51.428;21.162;2022-12-18T00:31:19;56.10;;;21.25;;
44885;SDS011;36669;51.428;21.162;2022-12-18T00:33:46;48.90;;;19.20;;
44885;SDS011;36669;51.428;21.162;2022-12-18T00:36:14;48.10;;;19.20;;
44885;SDS011;36669;51.428;21.162;2022-12-18T00:38:42;57.83;;;20.90;;
44885;SDS011;36669;51.428;21.162;2022-12-18T00:41:08;46.35;;;17.55;;
44885;SDS011;36669;51.428;21.162;2022-12-18T00:43:36;53.42;;;20.80;;
44885;SDS011;36669;51.428;21.162;2022-12-18T00:46:02;32.08;;;11.82;;
44885;SDS011;36669;51.428;21.162;2022-12-18T00:48:28;44.92;;;16.38;;
44885;SDS011;36669;51.428;21.162;2022-12-18T00:50:53;41.60;;;14.63;;
44885;SDS011;36669;51.428;21.162;2022-12-18T00:53:19;34.97;;;13.70;;
44885;SDS011;36669;51.428;21.162;2022-12-18T00:55:45;23.67;;;10.20;;
44885;SDS011;36669;51.428;21.162;2022-12-18T00:58:12;44.60;;;18.30;;
44885;SDS011;36669;51.428;21.162;2022-12-18T01:00:39;46.60;;;16.10;;
44885;SDS011;36669;51.428;21.162;2022-12-18T01:03:05;44.60;;;17.27;;
44885;SDS011;36669;51.428;21.162;2022-12-18T01:05:31;48.25;;;19.40;;
44885;SDS011;36669;51.428;21.162;2022-12-18T01:07:57;48.25;;;19.30;;
44885;SDS011;36669;51.428;21.162;2022-12-18T01:10:24;39.08;;;17.38;;
44885;SDS011;36669;51.428;21.162;2022-12-18T01:12:50;41.75;;;14.23;;
44885;SDS011;36669;51.428;21.162;2022-12-18T01:15:16;31.38;;;13.50;;
44885;SDS011;36669;51.428;21.162;2022-12-18T01:17:42;31.42;;;13.27;;
44885;SDS011;36669;51.428;21.162;2022-12-18T01:20:08;34.78;;;14.65;;
44885;SDS011;36669;51.428;21.162;2022-12-18T01:22:35;39.38;;;17.00;;
44885;SDS011;36669;51.428;21.162;2022-12-18T01:25:01;43.25;;;16.73;;
44885;SDS011;36669;51.428;21.162;2022-12-18T01:27:27;40.38;;;15.38;;
44885;SDS011;36669;51.428;21.162;2022-12-18T01:29:53;37.25;;;14.68;;
44885;SDS011;36669;51.428;21.162;2022-12-18T01:32:19;37.70;;;15.07;;
44885;SDS011;36669;51.428;21.162;2022-12-18T01:34:44;40.00;;;16.52;;
44885;SDS011;36669;51.428;21.162;2022-12-18T01:37:10;43.13;;;17.13;;
44885;SDS011;36669;51.428;21.162;2022-12-18T01:39:36;41.17;;;16.30;;
44885;SDS011;36669;51.428;21.162;2022-12-18T01:42:09;38.50;;;16.52;;
44885;SDS011;36669;51.428;21.162;2022-12-18T01:47:29;37.42;;;15.07;;
44885;SDS011;36669;51.428;21.162;2022-12-18T01:50:22;37.72;;;13.50;;
44885;SDS011;36669;51.428;21.162;2022-12-18T01:53:01;31.73;;;12.77;;
44885;SDS011;36669;51.428;21.162;2022-12-18T01:55:40;26.02;;;11.40;;
44885;SDS011;36669;51.428;21.162;2022-12-18T01:58:10;30.63;;;13.90;;
44885;SDS011;36669;51.428;21.162;2022-12-18T02:00:35;33.15;;;12.40;;
44885;SDS011;36669;51.428;21.162;2022-12-18T02:03:01;37.30;;;15.57;;
44885;SDS011;36669;51.428;21.162;2022-12-18T02:08:03;38.33;;;16.67;;
44885;SDS011;36669;51.428;21.162;2022-12-18T02:10:48;34.97;;;14.27;;
44885;SDS011;36669;51.428;21.162;2022-12-18T02:18:35;23.70;;;8.75;;
44885;SDS011;36669;51.428;21.162;2022-12-18T02:28:45;23.95;;;9.52;;
44885;SDS011;36669;51.428;21.162;2022-12-18T02:31:19;27.60;;;12.07;;
44885;SDS011;36669;51.428;21.162;2022-12-18T02:33:49;25.88;;;13.48;;
44885;SDS011;36669;51.428;21.162;2022-12-18T02:36:16;35.97;;;13.55;;
44885;SDS011;36669;51.428;21.162;2022-12-18T02:38:44;25.88;;;9.10;;
44885;SDS011;36669;51.428;21.162;2022-12-18T02:41:11;33.50;;;12.10;;
44885;SDS011;36669;51.428;21.162;2022-12-18T02:43:39;41.28;;;15.13;;
44885;SDS011;36669;51.428;21.162;2022-12-18T02:48:54;18.83;;;8.48;;
44885;SDS011;36669;51.428;21.162;2022-12-18T02:54:27;36.22;;;14.73;;
44885;SDS011;36669;51.428;21.162;2022-12-18T02:57:34;28.35;;;10.80;;
44885;SDS011;36669;51.428;21.162;2022-12-18T03:00:25;22.08;;;10.00;;
44885;SDS011;36669;51.428;21.162;2022-12-18T03:03:19;21.48;;;7.97;;
44885;SDS011;36669;51.428;21.162;2022-12-18T03:05:53;25.67;;;9.77;;
44885;SDS011;36669;51.428;21.162;2022-12-18T03:08:34;25.92;;;12.15;;
44885;SDS011;36669;51.428;21.162;2022-12-18T03:11:05;35.78;;;13.18;;
44885;SDS011;36669;51.428;21.162;2022-12-18T03:16:02;41.08;;;13.88;;
44885;SDS011;36669;51.428;21.162;2022-12-18T03:21:24;49.15;;;15.88;;
44885;SDS011;36669;51.428;21.162;2022-12-18T03:23:54;49.60;;;17.60;;
44885;SDS011;36669;51.428;21.162;2022-12-18T03:26:22;49.40;;;17.17;;
44885;SDS011;36669;51.428;21.162;2022-12-18T03:28:53;40.75;;;11.27;;
44885;SDS011;36669;51.428;21.162;2022-12-18T03:31:24;43.58;;;17.10;;
44885;SDS011;36669;51.428;21.162;2022-12-18T03:33:54;39.60;;;14.15;;
44885;SDS011;36669;51.428;21.162;2022-12-18T03:36:20;35.85;;;12.65;;
44885;SDS011;36669;51.428;21.162;2022-12-18T03:38:45;30.38;;;11.32;;
44885;SDS011;36669;51.428;21.162;2022-12-18T03:41:19;35.13;;;13.13;;
44885;SDS011;36669;51.428;21.162;2022-12-18T03:52:46;24.92;;;10.40;;
44885;SDS011;36669;51.428;21.162;2022-12-18T03:55:22;41.92;;;14.18;;
44885;SDS011;36669;51.428;21.162;2022-12-18T03:57:52;27.38;;;10.63;;
44885;SDS011;36669;51.428;21.162;2022-12-18T04:00:19;26.20;;;8.48;;
44885;SDS011;36669;51.428;21.162;2022-12-18T04:02:47;27.27;;;10.32;;
44885;SDS011;36669;51.428;21.162;2022-12-18T04:05:16;38.17;;;14.48;;
44885;SDS011;36669;51.428;21.162;2022-12-18T04:07:44;48.42;;;19.33;;
44885;SDS011;36669;51.428;21.162;2022-12-18T04:10:12;21.27;;;7.70;;
44885;SDS011;36669;51.428;21.162;2022-12-18T04:12:40;26.15;;;9.98;;
44885;SDS011;36669;51.428;21.162;2022-12-18T04:15:06;23.63;;;9.57;;
44885;SDS011;36669;51.428;21.162;2022-12-18T04:17:33;28.50;;;11.15;;
44885;SDS011;36669;51.428;21.162;2022-12-18T04:19:59;29.38;;;12.02;;
44885;SDS011;36669;51.428;21.162;2022-12-18T04:22:24;34.78;;;11.98;;
44885;SDS011;36669;51.428;21.162;2022-12-18T04:24:50;22.63;;;8.77;;
44885;SDS011;36669;51.428;21.162;2022-12-18T04:27:15;17.80;;;6.00;;
44885;SDS011;36669;51.428;21.162;2022-12-18T04:29:41;24.35;;;10.65;;
44885;SDS011;36669;51.428;21.162;2022-12-18T04:32:07;17.60;;;8.25;;
44885;SDS011;36669;51.428;21.162;2022-12-18T04:34:33;34.75;;;14.73;;
44885;SDS011;36669;51.428;21.162;2022-12-18T04:36:58;28.10;;;10.82;;
44885;SDS011;36669;51.428;21.162;2022-12-18T04:39:24;22.23;;;8.13;;
44885;SDS011;36669;51.428;21.162;2022-12-18T04:41:50;39.97;;;15.00;;
44885;SDS011;36669;51.428;21.162;2022-12-18T04:44:15;25.05;;;8.88;;
44885;SDS011;36669;51.428;21.162;2022-12-18T04:46:41;34.60;;;11.07;;
44885;SDS011;36669;51.428;21.162;2022-12-18T04:49:07;7.13;;;4.25;;
44885;SDS011;36669;51.428;21.162;2022-12-18T04:51:32;45.20;;;16.48;;
44885;SDS011;36669;51.428;21.162;2022-12-18T04:53:58;35.22;;;12.85;;
44885;SDS011;36669;51.428;21.162;2022-12-18T04:56:23;47.40;;;16.77;;
44885;SDS011;36669;51.428;21.162;2022-12-18T04:58:49;50.22;;;17.00;;
44885;SDS011;36669;51.428;21.162;2022-12-18T05:01:15;48.38;;;17.25;;
44885;SDS011;36669;51.428;21.162;2022-12-18T05:03:42;47.13;;;14.05;;
44885;SDS011;36669;51.428;21.162;2022-12-18T05:06:08;54.92;;;19.30;;
44885;SDS011;36669;51.428;21.162;2022-12-18T05:08:34;46.72;;;18.00;;
44885;SDS011;36669;51.428;21.162;2022-12-18T05:11:13;32.92;;;13.02;;
44885;SDS011;36669;51.428;21.162;2022-12-18T05:13:43;61.75;;;19.65;;
44885;SDS011;36669;51.428;21.162;2022-12-18T05:16:09;48.42;;;17.40;;
44885;SDS011;36669;51.428;21.162;2022-12-18T05:18:35;44.20;;;14.38;;
44885;SDS011;36669;51.428;21.162;2022-12-18T05:21:01;38.10;;;13.57;;
44885;SDS011;36669;51.428;21.162;2022-12-18T05:23:28;39.25;;;11.80;;
44885;SDS011;36669;51.428;21.162;2022-12-18T05:25:54;50.38;;;16.05;;
44885;SDS011;36669;51.428;21.162;2022-12-18T05:28:22;41.47;;;15.52;;
44885;SDS011;36669;51.428;21.162;2022-12-18T05:30:52;34.47;;;11.27;;
44885;SDS011;36669;51.428;21.162;2022-12-18T05:33:23;50.20;;;17.15;;
44885;SDS011;36669;51.428;21.162;2022-12-18T05:35:50;57.47;;;20.15;;
44885;SDS011;36669;51.428;21.162;2022-12-18T05:38:17;28.38;;;10.68;;
44885;SDS011;36669;51.428;21.162;2022-12-18T05:40:43;23.90;;;9.40;;
44885;SDS011;36669;51.428;21.162;2022-12-18T05:43:09;41.28;;;15.25;;
44885;SDS011;36669;51.428;21.162;2022-12-18T05:45:38;29.98;;;10.95;;
44885;SDS011;36669;51.428;21.162;2022-12-18T05:48:04;36.88;;;12.10;;
44885;SDS011;36669;51.428;21.162;2022-12-18T05:50:33;31.95;;;11.98;;
44885;SDS011;36669;51.428;21.162;2022-12-18T05:52:59;43.10;;;14.63;;
44885;SDS011;36669;51.428;21.162;2022-12-18T05:55:25;33.15;;;10.45;;
44885;SDS011;36669;51.428;21.162;2022-12-18T05:57:51;31.98;;;12.13;;
44885;SDS011;36669;51.428;21.162;2022-12-18T06:00:16;20.75;;;7.72;;
44885;SDS011;36669;51.428;21.162;2022-12-18T06:02:45;25.38;;;9.70;;
44885;SDS011;36669;51.428;21.162;2022-12-18T06:05:12;24.25;;;8.32;;
44885;SDS011;36669;51.428;21.162;2022-12-18T06:07:37;23.63;;;10.27;;
44885;SDS011;36669;51.428;21.162;2022-12-18T06:10:03;29.60;;;10.35;;
44885;SDS011;36669;51.428;21.162;2022-12-18T06:12:29;38.28;;;13.23;;
44885;SDS011;36669;51.428;21.162;2022-12-18T06:14:55;26.63;;;9.75;;
44885;SDS011;36669;51.428;21.162;2022-12-18T06:17:20;24.80;;;9.90;;
44885;SDS011;36669;51.428;21.162;2022-12-18T06:19:46;48.88;;;19.27;;
44885;SDS011;36669;51.428;21.162;2022-12-18T06:22:12;27.30;;;10.45;;
44885;SDS011;36669;51.428;21.162;2022-12-18T06:24:37;33.65;;;13.32;;
44885;SDS011;36669;51.428;21.162;2022-12-18T06:27:03;31.83;;;12.98;;
44885;SDS011;36669;51.428;21.162;2022-12-18T06:29:28;24.48;;;8.73;;
44885;SDS011;36669;51.428;21.162;2022-12-18T06:31:54;39.60;;;14.45;;
44885;SDS011;36669;51.428;21.162;2022-12-18T06:34:19;35.53;;;13.75;;
44885;SDS011;36669;51.428;21.162;2022-12-18T06:36:45;47.80;;;15.52;;
44885;SDS011;36669;51.428;21.162;2022-12-18T06:39:11;33.97;;;13.02;;
44885;SDS011;36669;51.428;21.162;2022-12-18T06:41:36;19.98;;;9.70;;
44885;SDS011;36669;51.428;21.162;2022-12-18T06:44:02;26.20;;;10.18;;
44885;SDS011;36669;51.428;21.162;2022-12-18T06:46:28;22.65;;;9.05;;
44885;SDS011;36669;51.428;21.162;2022-12-18T06:48:53;35.17;;;10.43;;
44885;SDS011;36669;51.428;21.162;2022-12-18T06:51:19;34.17;;;11.52;;
44885;SDS011;36669;51.428;21.162;2022-12-18T06:53:46;33.92;;;12.38;;
44885;SDS011;36669;51.428;21.162;2022-12-18T06:56:12;41.15;;;12.77;;
44885;SDS011;36669;51.428;21.162;2022-12-18T06:58:38;28.48;;;11.50;;
44885;SDS011;36669;51.428;21.162;2022-12-18T07:01:05;30.52;;;11.30;;
44885;SDS011;36669;51.428;21.162;2022-12-18T07:03:32;14.70;;;6.95;;
44885;SDS011;36669;51.428;21.162;2022-12-18T07:05:58;32.83;;;12.25;;
44885;SDS011;36669;51.428;21.162;2022-12-18T07:08:24;66.13;;;23.02;;
44885;SDS011;36669;51.428;21.162;2022-12-18T07:10:50;60.25;;;19.20;;
44885;SDS011;36669;51.428;21.162;2022-12-18T07:13:15;38.33;;;12.88;;
44885;SDS011;36669;51.428;21.162;2022-12-18T07:15:42;54.95;;;20.50;;
44885;SDS011;36669;51.428;21.162;2022-12-18T07:18:08;51.85;;;18.35;;
44885;SDS011;36669;51.428;21.162;2022-12-18T07:20:34;51.38;;;16.60;;
44885;SDS011;36669;51.428;21.162;2022-12-18T07:23:01;34.67;;;13.05;;
44885;SDS011;36669;51.428;21.162;2022-12-18T07:36:37;72.18;;;25.23;;
44885;SDS011;36669;51.428;21.162;2022-12-18T07:39:02;48.75;;;16.02;;
44885;SDS011;36669;51.428;21.162;2022-12-18T07:41:28;63.08;;;23.00;;
44885;SDS011;36669;51.428;21.162;2022-12-18T07:43:53;59.17;;;22.73;;
44885;SDS011;36669;51.428;21.162;2022-12-18T07:46:19;65.20;;;23.42;;
44885;SDS011;36669;51.428;21.162;2022-12-18T07:48:45;63.25;;;21.55;;
44885;SDS011;36669;51.428;21.162;2022-12-18T07:51:14;64.32;;;23.05;;
44885;SDS011;36669;51.428;21.162;2022-12-18T07:53:40;73.35;;;23.20;;
44885;SDS011;36669;51.428;21.162;2022-12-18T07:56:07;68.20;;;23.23;;
44885;SDS011;36669;51.428;21.162;2022-12-18T07:58:35;69.35;;;23.67;;
44885;SDS011;36669;51.428;21.162;2022-12-18T08:01:05;72.75;;;24.30;;
44885;SDS011;36669;51.428;21.162;2022-12-18T08:03:32;62.63;;;22.67;;
44885;SDS011;36669;51.428;21.162;2022-12-18T08:06:01;66.65;;;23.88;;
44885;SDS011;36669;51.428;21.162;2022-12-18T08:08:29;72.88;;;26.05;;
44885;SDS011;36669;51.428;21.162;2022-12-18T08:10:55;64.40;;;24.02;;
44885;SDS011;36669;51.428;21.162;2022-12-18T08:13:21;77.03;;;25.02;;
44885;SDS011;36669;51.428;21.162;2022-12-18T08:15:55;55.92;;;18.92;;
44885;SDS011;36669;51.428;21.162;2022-12-18T08:18:22;73.72;;;24.55;;
44885;SDS011;36669;51.428;21.162;2022-12-18T08:20:48;76.18;;;27.63;;
44885;SDS011;36669;51.428;21.162;2022-12-18T08:23:13;70.20;;;25.23;;
44885;SDS011;36669;51.428;21.162;2022-12-18T08:25:39;62.10;;;24.20;;
44885;SDS011;36669;51.428;21.162;2022-12-18T08:28:04;71.00;;;22.60;;
44885;SDS011;36669;51.428;21.162;2022-12-18T08:30:30;76.45;;;24.75;;
44885;SDS011;36669;51.428;21.162;2022-12-18T08:32:55;65.55;;;25.63;;
44885;SDS011;36669;51.428;21.162;2022-12-18T08:35:21;71.30;;;26.38;;
44885;SDS011;36669;51.428;21.162;2022-12-18T08:37:46;68.63;;;25.75;;
44885;SDS011;36669;51.428;21.162;2022-12-18T08:40:12;81.50;;;30.45;;
44885;SDS011;36669;51.428;21.162;2022-12-18T08:42:38;75.93;;;27.20;;
44885;SDS011;36669;51.428;21.162;2022-12-18T08:45:22;80.18;;;28.58;;
44885;SDS011;36669;51.428;21.162;2022-12-18T08:47:49;77.65;;;28.58;;
44885;SDS011;36669;51.428;21.162;2022-12-18T08:50:15;81.07;;;30.10;;
44885;SDS011;36669;51.428;21.162;2022-12-18T08:52:41;68.70;;;25.17;;
44885;SDS011;36669;51.428;21.162;2022-12-18T08:55:07;47.25;;;15.38;;
44885;SDS011;36669;51.428;21.162;2022-12-18T08:57:33;44.45;;;14.23;;
44885;SDS011;36669;51.428;21.162;2022-12-18T08:59:59;64.60;;;25.23;;
44885;SDS011;36669;51.428;21.162;2022-12-18T09:02:24;72.90;;;24.80;;
44885;SDS011;36669;51.428;21.162;2022-12-18T09:04:50;30.77;;;10.10;;
44885;SDS011;36669;51.428;21.162;2022-12-18T09:07:15;61.35;;;24.42;;
44885;SDS011;36669;51.428;21.162;2022-12-18T09:09:41;62.33;;;22.63;;
44885;SDS011;36669;51.428;21.162;2022-12-18T09:12:07;63.83;;;22.48;;
44885;SDS011;36669;51.428;21.162;2022-12-18T09:14:32;67.10;;;25.90;;
44885;SDS011;36669;51.428;21.162;2022-12-18T09:16:58;31.27;;;9.23;;
44885;SDS011;36669;51.428;21.162;2022-12-18T09:19:23;54.30;;;20.30;;
44885;SDS011;36669;51.428;21.162;2022-12-18T09:21:49;48.13;;;17.58;;
44885;SDS011;36669;51.428;21.162;2022-12-18T09:24:15;53.67;;;22.25;;
44885;SDS011;36669;51.428;21.162;2022-12-18T09:26:41;57.78;;;22.33;;
44885;SDS011;36669;51.428;21.162;2022-12-18T09:29:07;68.50;;;23.65;;
44885;SDS011;36669;51.428;21.162;2022-12-18T09:31:32;60.67;;;22.58;;
44885;SDS011;36669;51.428;21.162;2022-12-18T09:33:58;65.20;;;24.48;;
44885;SDS011;36669;51.428;21.162;2022-12-18T09:36:24;56.88;;;21.50;;
44885;SDS011;36669;51.428;21.162;2022-12-18T09:38:50;66.53;;;25.40;;
44885;SDS011;36669;51.428;21.162;2022-12-18T09:44:10;57.58;;;22.90;;
44885;SDS011;36669;51.428;21.162;2022-12-18T09:46:42;58.38;;;23.92;;
44885;SDS011;36669;51.428;21.162;2022-12-18T09:49:12;45.87;;;14.70;;
44885;SDS011;36669;51.428;21.162;2022-12-18T09:51:47;57.45;;;21.33;;
44885;SDS011;36669;51.428;21.162;2022-12-18T09:55:10;30.55;;;11.85;;
44885;SDS011;36669;51.428;21.162;2022-12-18T09:57:21;25.25;;;10.25;;
44885;SDS011;36669;51.428;21.162;2022-12-18T09:59:58;31.17;;;11.98;;
44885;SDS011;36669;51.428;21.162;2022-12-18T10:02:34;41.63;;;17.77;;
44885;SDS011;36669;51.428;21.162;2022-12-18T10:05:07;40.85;;;16.83;;
44885;SDS011;36669;51.428;21.162;2022-12-18T10:25:14;49.70;;;19.67;;
44885;SDS011;36669;51.428;21.162;2022-12-18T10:27:57;54.55;;;20.25;;
44885;SDS011;36669;51.428;21.162;2022-12-18T10:30:31;58.92;;;23.20;;
44885;SDS011;36669;51.428;21.162;2022-12-18T10:33:00;60.30;;;22.65;;
44885;SDS011;36669;51.428;21.162;2022-12-18T10:35:29;39.38;;;15.05;;
44885;SDS011;36669;51.428;21.162;2022-12-18T10:43:24;55.88;;;21.75;;
44885;SDS011;36669;51.428;21.162;2022-12-18T10:45:57;61.65;;;22.25;;
44885;SDS011;36669;51.428;21.162;2022-12-18T10:48:33;51.17;;;19.05;;
44885;SDS011;36669;51.428;21.162;2022-12-18T10:51:01;59.10;;;23.00;;
44885;SDS011;36669;51.428;21.162;2022-12-18T10:53:29;61.92;;;23.23;;
44885;SDS011;36669;51.428;21.162;2022-12-18T10:56:03;52.20;;;22.30;;
44885;SDS011;36669;51.428;21.162;2022-12-18T10:58:32;56.03;;;23.23;;
44885;SDS011;36669;51.428;21.162;2022-12-18T11:03:39;25.17;;;10.20;;
44885;SDS011;36669;51.428;21.162;2022-12-18T11:06:13;57.55;;;21.55;;
44885;SDS011;36669;51.428;21.162;2022-12-18T11:08:45;51.15;;;22.40;;
44885;SDS011;36669;51.428;21.162;2022-12-18T11:11:28;63.80;;;23.02;;
44885;SDS011;36669;51.428;21.162;2022-12-18T11:14:12;52.40;;;20.77;;
44885;SDS011;36669;51.428;21.162;2022-12-18T11:16:44;61.10;;;22.55;;
44885;SDS011;36669;51.428;21.162;2022-12-18T11:21:56;50.65;;;20.08;;
44885;SDS011;36669;51.428;21.162;2022-12-18T11:27:00;54.13;;;22.13;;
44885;SDS011;36669;51.428;21.162;2022-12-18T11:29:34;54.17;;;21.63;;
44885;SDS011;36669;51.428;21.162;2022-12-18T11:32:37;58.90;;;23.02;;
44885;SDS011;36669;51.428;21.162;2022-12-18T11:37:53;54.65;;;22.50;;
44885;SDS011;36669;51.428;21.162;2022-12-18T11:40:44;59.75;;;24.75;;
44885;SDS011;36669;51.428;21.162;2022-12-18T11:43:21;65.82;;;26.10;;
44885;SDS011;36669;51.428;21.162;2022-12-18T11:48:47;56.70;;;21.48;;
44885;SDS011;36669;51.428;21.162;2022-12-18T11:51:20;53.85;;;20.83;;
44885;SDS011;36669;51.428;21.162;2022-12-18T11:53:53;52.22;;;20.75;;
44885;SDS011;36669;51.428;21.162;2022-12-18T12:07:36;53.90;;;22.20;;
44885;SDS011;36669;51.428;21.162;2022-12-18T12:10:29;47.45;;;17.55;;
44885;SDS011;36669;51.428;21.162;2022-12-18T12:21:04;49.80;;;18.77;;
44885;SDS011;36669;51.428;21.162;2022-12-18T12:28:56;39.97;;;15.07;;
44885;SDS011;36669;51.428;21.162;2022-12-18T12:31:36;54.63;;;20.08;;
44885;SDS011;36669;51.428;21.162;2022-12-18T12:39:39;56.65;;;23.23;;
44885;SDS011;36669;51.428;21.162;2022-12-18T12:45:14;58.17;;;21.13;;
44885;SDS011;36669;51.428;21.162;2022-12-18T12:47:45;57.28;;;23.30;;
44885;SDS011;36669;51.428;21.162;2022-12-18T12:50:16;57.80;;;24.40;;
44885;SDS011;36669;51.428;21.162;2022-12-18T12:52:45;53.53;;;21.52;;
44885;SDS011;36669;51.428;21.162;2022-12-18T12:57:55;57.65;;;24.98;;
44885;SDS011;36669;51.428;21.162;2022-12-18T13:00:28;56.35;;;20.27;;
44885;SDS011;36669;51.428;21.162;2022-12-18T13:05:57;53.55;;;20.35;;
44885;SDS011;36669;51.428;21.162;2022-12-18T13:08:26;58.33;;;22.27;;
44885;SDS011;36669;51.428;21.162;2022-12-18T13:10:56;48.45;;;19.77;;
44885;SDS011;36669;51.428;21.162;2022-12-18T13:13:48;46.10;;;19.88;;
44885;SDS011;36669;51.428;21.162;2022-12-18T13:16:18;53.20;;;21.73;;
44885;SDS011;36669;51.428;21.162;2022-12-18T13:18:53;46.22;;;19.00;;
44885;SDS011;36669;51.428;21.162;2022-12-18T13:23:55;54.28;;;20.90;;
44885;SDS011;36669;51.428;21.162;2022-12-18T13:31:14;53.85;;;21.80;;
44885;SDS011;36669;51.428;21.162;2022-12-18T13:34:09;51.67;;;21.63;;
44885;SDS011;36669;51.428;21.162;2022-12-18T13:36:43;59.25;;;22.83;;
44885;SDS011;36669;51.428;21.162;2022-12-18T13:41:46;57.33;;;22.10;;
44885;SDS011;36669;51.428;21.162;2022-12-18T13:46:54;59.67;;;22.73;;
44885;SDS011;36669;51.428;21.162;2022-12-18T13:49:39;58.85;;;22.88;;
44885;SDS011;36669;51.428;21.162;2022-12-18T13:52:27;51.22;;;21.55;;
44885;SDS011;36669;51.428;21.162;2022-12-18T13:54:58;57.47;;;22.67;;
44885;SDS011;36669;51.428;21.162;2022-12-18T13:59:55;56.13;;;22.17;;
44885;SDS011;36669;51.428;21.162;2022-12-18T14:02:23;55.42;;;22.42;;
44885;SDS011;36669;51.428;21.162;2022-12-18T14:04:51;59.20;;;22.88;;
44885;SDS011;36669;51.428;21.162;2022-12-18T14:07:21;57.72;;;22.58;;
44885;SDS011;36669;51.428;21.162;2022-12-18T14:09:51;53.72;;;22.77;;
44885;SDS011;36669;51.428;21.162;2022-12-18T14:12:22;59.00;;;22.88;;
44885;SDS011;36669;51.428;21.162;2022-12-18T14:15:23;59.88;;;22.42;;
44885;SDS011;36669;51.428;21.162;2022-12-18T14:17:51;52.43;;;20.50;;
44885;SDS011;36669;51.428;21.162;2022-12-18T14:20:26;49.10;;;19.33;;
44885;SDS011;36669;51.428;21.162;2022-12-18T14:22:54;48.80;;;18.67;;
44885;SDS011;36669;51.428;21.162;2022-12-18T14:25:22;44.05;;;17.30;;
44885;SDS011;36669;51.428;21.162;2022-12-18T14:27:53;52.03;;;23.42;;
44885;SDS011;36669;51.428;21.162;2022-12-18T14:30:39;55.67;;;23.90;;
44885;SDS011;36669;51.428;21.162;2022-12-18T14:33:09;46.97;;;17.83;;
44885;SDS011;36669;51.428;21.162;2022-12-18T14:35:40;54.60;;;21.60;;
44885;SDS011;36669;51.428;21.162;2022-12-18T14:41:03;59.55;;;25.25;;
44885;SDS011;36669;51.428;21.162;2022-12-18T14:43:31;60.03;;;22.02;;
44885;SDS011;36669;51.428;21.162;2022-12-18T14:45:59;45.83;;;19.15;;
44885;SDS011;36669;51.428;21.162;2022-12-18T14:53:36;51.88;;;20.88;;
44885;SDS011;36669;51.428;21.162;2022-12-18T14:56:03;63.33;;;23.85;;
44885;SDS011;36669;51.428;21.162;2022-12-18T14:59:33;57.97;;;22.17;;
44885;SDS011;36669;51.428;21.162;2022-12-18T15:04:44;64.68;;;24.23;;
44885;SDS011;36669;51.428;21.162;2022-12-18T15:09:36;59.90;;;25.10;;
44885;SDS011;36669;51.428;21.162;2022-12-18T15:12:03;63.33;;;23.67;;
44885;SDS011;36669;51.428;21.162;2022-12-18T15:14:30;57.58;;;22.52;;
44885;SDS011;36669;51.428;21.162;2022-12-18T15:17:05;77.97;;;27.95;;
44885;SDS011;36669;51.428;21.162;2022-12-18T15:19:40;79.07;;;27.52;;
44885;SDS011;36669;51.428;21.162;2022-12-18T15:22:20;66.30;;;23.63;;
44885;SDS011;36669;51.428;21.162;2022-12-18T15:24:58;62.95;;;24.65;;
44885;SDS011;36669;51.428;21.162;2022-12-18T15:27:29;62.88;;;24.58;;
44885;SDS011;36669;51.428;21.162;2022-12-18T15:32:32;62.28;;;24.73;;
44885;SDS011;36669;51.428;21.162;2022-12-18T15:35:03;66.47;;;25.15;;
44885;SDS011;36669;51.428;21.162;2022-12-18T15:37:33;58.83;;;24.27;;
44885;SDS011;36669;51.428;21.162;2022-12-18T15:39:58;57.60;;;23.98;;
44885;SDS011;36669;51.428;21.162;2022-12-18T15:42:24;63.95;;;25.00;;
44885;SDS011;36669;51.428;21.162;2022-12-18T15:45:11;60.10;;;24.20;;
44885;SDS011;36669;51.428;21.162;2022-12-18T15:47:37;60.47;;;24.90;;
44885;SDS011;36669;51.428;21.162;2022-12-18T15:50:03;65.50;;;25.58;;
44885;SDS011;36669;51.428;21.162;2022-12-18T15:52:30;56.00;;;23.95;;
44885;SDS011;36669;51.428;21.162;2022-12-18T15:55:01;63.95;;;25.58;;
44885;SDS011;36669;51.428;21.162;2022-12-18T15:57:45;65.43;;;25.67;;
44885;SDS011;36669;51.428;21.162;2022-12-18T16:00:11;59.53;;;23.65;;
44885;SDS011;36669;51.428;21.162;2022-12-18T16:02:37;65.53;;;24.10;;
44885;SDS011;36669;51.428;21.162;2022-12-18T16:05:05;62.13;;;25.05;;
44885;SDS011;36669;51.428;21.162;2022-12-18T16:07:39;55.88;;;23.38;;
44885;SDS011;36669;51.428;21.162;2022-12-18T16:10:04;60.17;;;24.55;;
44885;SDS011;36669;51.428;21.162;2022-12-18T16:12:30;68.40;;;26.42;;
44885;SDS011;36669;51.428;21.162;2022-12-18T16:14:56;62.97;;;24.65;;
44885;SDS011;36669;51.428;21.162;2022-12-18T16:17:22;65.40;;;24.75;;
44885;SDS011;36669;51.428;21.162;2022-12-18T16:19:48;61.70;;;25.00;;
44885;SDS011;36669;51.428;21.162;2022-12-18T16:22:23;63.03;;;24.70;;
44885;SDS011;36669;51.428;21.162;2022-12-18T16:24:51;64.60;;;25.40;;
44885;SDS011;36669;51.428;21.162;2022-12-18T16:27:18;71.53;;;26.02;;
44885;SDS011;36669;51.428;21.162;2022-12-18T16:29:44;65.30;;;26.73;;
44885;SDS011;36669;51.428;21.162;2022-12-18T16:32:11;72.05;;;24.92;;
44885;SDS011;36669;51.428;21.162;2022-12-18T16:34:38;63.35;;;25.63;;
44885;SDS011;36669;51.428;21.162;2022-12-18T16:37:06;65.05;;;26.65;;
44885;SDS011;36669;51.428;21.162;2022-12-18T16:39:33;70.22;;;26.23;;
44885;SDS011;36669;51.428;21.162;2022-12-18T16:41:59;67.90;;;27.52;;
44885;SDS011;36669;51.428;21.162;2022-12-18T16:44:29;65.75;;;26.75;;
44885;SDS011;36669;51.428;21.162;2022-12-18T16:46:55;65.57;;;26.33;;
44885;SDS011;36669;51.428;21.162;2022-12-18T16:49:26;67.35;;;26.50;;
44885;SDS011;36669;51.428;21.162;2022-12-18T16:51:52;90.65;;;40.95;;
44885;SDS011;36669;51.428;21.162;2022-12-18T16:54:18;63.67;;;25.05;;
44885;SDS011;36669;51.428;21.162;2022-12-18T16:56:44;60.17;;;24.30;;
44885;SDS011;36669;51.428;21.162;2022-12-18T16:59:11;62.38;;;25.30;;
44885;SDS011;36669;51.428;21.162;2022-12-18T17:01:37;80.30;;;27.25;;
44885;SDS011;36669;51.428;21.162;2022-12-18T17:04:04;83.25;;;32.67;;